Time;durP1;ratioP1;P1;durP2;ratioP2;P2;SDS_P1;SDS_P2;PMS_P1;PMS_P2;Temp;Humidity;BMP_temperature;BMP_pressure;BME280_temperature;BME280_humidity;BME280_pressure;Samples;Min_cycle;Max_cycle;Signal;HPM_P1;HPM_P2
2022/09/29 00:02:07;;;;;;;4.43;2.47;;;5.80;99.90;;;;;;5032618;28;20245;-89
2022/09/29 00:04:34;;;;;;;4.80;2.83;;;5.80;99.90;;;;;;5015861;28;20040;-90
2022/09/29 00:07:01;;;;;;;7.28;3.00;;;5.80;99.90;;;;;;5032324;28;20042;-89
2022/09/29 00:09:28;;;;;;;5.22;2.92;;;6.50;99.90;;;;;;5015817;28;20045;-90
2022/09/29 00:11:55;;;;;;;6.10;3.33;;;5.80;99.90;;;;;;5016390;28;20517;-90
2022/09/29 00:14:23;;;;;;;7.15;2.75;;;5.70;99.90;;;;;;5018919;28;20065;-89
2022/09/29 00:16:50;;;;;;;6.05;2.78;;;5.70;99.90;;;;;;5019399;28;20051;-90
2022/09/29 00:19:18;;;;;;;5.10;2.70;;;5.70;99.90;;;;;;5035471;28;20148;-89
2022/09/29 00:21:44;;;;;;;4.68;2.85;;;5.70;99.90;;;;;;5019432;28;20121;-90
2022/09/29 00:24:11;;;;;;;6.35;3.00;;;6.00;99.90;;;;;;5019754;28;20075;-89
2022/09/29 00:26:38;;;;;;;5.95;2.80;;;5.70;99.90;;;;;;5051520;28;20048;-90
2022/09/29 00:29:05;;;;;;;5.72;2.95;;;6.40;99.90;;;;;;5019447;28;20086;-89
2022/09/29 00:31:32;;;;;;;5.32;2.80;;;5.80;99.90;;;;;;5051136;28;20038;-89
2022/09/29 00:33:59;;;;;;;5.90;3.17;;;5.80;99.90;;;;;;5003026;28;20044;-90
2022/09/29 00:36:28;;;;;;;5.32;2.60;;;5.70;99.90;;;;;;5051381;28;20049;-90
2022/09/29 00:38:56;;;;;;;5.45;2.80;;;5.70;99.90;;;;;;5023158;28;20045;-90
2022/09/29 00:41:27;;;;;;;4.40;2.70;;;6.30;99.90;;;;;;5071154;28;20037;-89
2022/09/29 00:44:25;;;;;;;6.72;2.58;;;5.70;99.90;;;;;;5054669;28;20501;-89
2022/09/29 00:46:54;;;;;;;5.88;2.97;;;5.70;99.90;;;;;;5055166;28;20060;-89
2022/09/29 00:49:41;;;;;;;5.68;2.80;;;5.90;99.90;;;;;;5054667;28;20405;-89
2022/09/29 00:52:08;;;;;;;4.50;2.50;;;5.70;99.90;;;;;;5054965;28;20132;-89
2022/09/29 00:54:40;;;;;;;6.60;2.88;;;5.80;99.90;;;;;;5055038;28;20080;-89
2022/09/29 00:57:10;;;;;;;4.35;2.45;;;6.20;99.90;;;;;;5054867;28;20052;-90
2022/09/29 01:00:02;;;;;;;5.70;3.03;;;5.60;99.90;;;;;;5054446;28;20041;-89
2022/09/29 01:02:33;;;;;;;6.75;2.90;;;5.60;99.90;;;;;;5071840;28;20032;-89
2022/09/29 01:05:01;;;;;;;4.93;2.55;;;5.60;99.90;;;;;;5054845;28;20386;-89
2022/09/29 01:07:28;;;;;;;4.95;2.58;;;5.60;99.90;;;;;;5054147;28;20258;-89
2022/09/29 01:09:56;;;;;;;4.85;2.67;;;6.30;99.90;;;;;;5054881;28;20068;-89
2022/09/29 01:12:23;;;;;;;4.30;2.47;;;5.50;99.90;;;;;;5022495;28;20080;-89
2022/09/29 01:14:52;;;;;;;5.10;2.70;;;5.60;99.90;;;;;;5054976;28;20085;-89
2022/09/29 01:17:20;;;;;;;4.07;2.42;;;5.60;99.90;;;;;;5054949;28;20048;-89
2022/09/29 01:19:56;;;;;;;5.22;2.85;;;5.60;99.90;;;;;;5055129;28;20041;-89
2022/09/29 01:22:38;;;;;;;5.13;2.60;;;5.60;99.90;;;;;;5054953;28;20094;-89
2022/09/29 01:25:25;;;;;;;5.45;2.92;;;5.60;99.90;;;;;;5055272;28;20037;-90
2022/09/29 01:28:14;;;;;;;5.53;2.88;;;5.60;99.90;;;;;;5071249;28;20084;-89
2022/09/29 01:30:49;;;;;;;5.90;3.15;;;5.60;99.90;;;;;;5054878;28;20045;-90
2022/09/29 01:33:58;;;;;;;4.88;2.88;;;5.60;99.90;;;;;;5054622;28;20103;-90
2022/09/29 01:36:43;;;;;;;4.82;2.90;;;5.60;99.90;;;;;;4972567;29;20098;-89
2022/09/29 01:39:23;;;;;;;4.55;2.85;;;5.60;99.90;;;;;;5051849;28;20049;-90
2022/09/29 01:41:56;;;;;;;4.47;2.63;;;5.60;99.90;;;;;;5070576;28;20044;-89
2022/09/29 01:44:38;;;;;;;6.13;3.00;;;5.60;99.90;;;;;;5054776;28;20040;-90
2022/09/29 01:47:22;;;;;;;9.23;2.42;;;5.60;99.90;;;;;;5058040;28;20041;-89
2022/09/29 01:49:54;;;;;;;6.03;2.85;;;5.60;99.90;;;;;;5057875;28;20032;-89
2022/09/29 01:52:29;;;;;;;6.35;2.60;;;5.70;99.90;;;;;;5057705;28;20037;-88
2022/09/29 01:54:58;;;;;;;5.43;3.10;;;5.60;99.90;;;;;;5058001;28;20059;-88
2022/09/29 01:57:31;;;;;;;6.15;3.10;;;5.70;99.90;;;;;;5074460;28;20101;-90
2022/09/29 02:00:07;;;;;;;4.15;2.30;;;5.60;99.90;;;;;;5057841;28;20045;-90
2022/09/29 02:02:46;;;;;;;5.45;2.90;;;5.50;99.90;;;;;;5074465;28;20045;-89
2022/09/29 02:05:19;;;;;;;4.53;2.50;;;5.70;99.90;;;;;;5073959;28;20108;-88
2022/09/29 02:07:47;;;;;;;5.40;2.80;;;5.50;99.90;;;;;;5057483;28;20044;-89
2022/09/29 02:10:32;;;;;;;5.95;2.92;;;6.20;99.90;;;;;;5037959;28;20780;-90
2022/09/29 02:13:04;;;;;;;4.40;2.67;;;5.40;99.90;;;;;;5038293;28;20057;-90
2022/09/29 02:15:35;;;;;;;4.93;2.60;;;5.40;99.90;;;;;;5051901;28;20349;-88
2022/09/29 02:18:09;;;;;;;4.18;2.40;;;5.30;99.90;;;;;;5057903;28;20049;-89
2022/09/29 02:20:36;;;;;;;7.18;2.95;;;5.30;99.90;;;;;;5071743;28;20509;-90
2022/09/29 02:23:03;;;;;;;3.10;2.00;;;5.40;99.90;;;;;;5021509;28;20041;-89
2022/09/29 02:25:36;;;;;;;4.75;2.83;;;5.60;99.90;;;;;;5005503;28;20045;-89
2022/09/29 02:28:04;;;;;;;5.18;2.60;;;5.30;99.90;;;;;;5037458;28;20048;-88
2022/09/29 02:30:32;;;;;;;4.53;2.42;;;5.30;99.90;;;;;;5053931;28;20049;-90
2022/09/29 02:32:58;;;;;;;4.70;2.90;;;5.30;99.90;;;;;;5021663;28;20049;-89
2022/09/29 02:35:38;;;;;;;4.60;2.85;;;5.30;99.90;;;;;;5005611;28;20563;-88
2022/09/29 02:38:13;;;;;;;5.07;2.67;;;5.70;99.90;;;;;;5037338;28;20046;-89
2022/09/29 02:40:57;;;;;;;4.72;2.80;;;5.30;99.90;;;;;;5048990;28;20033;-89
2022/09/29 02:43:53;;;;;;;4.82;2.95;;;5.20;99.90;;;;;;5056846;28;20413;-89
2022/09/29 02:46:40;;;;;;;5.43;2.63;;;5.20;99.90;;;;;;5073640;28;20033;-90
2022/09/29 02:49:45;;;;;;;4.50;2.63;;;5.20;99.90;;;;;;5056917;28;20378;-89
2022/09/29 02:52:30;;;;;;;6.05;2.40;;;5.20;99.90;;;;;;5056342;28;20049;-88
2022/09/29 02:55:11;;;;;;;7.33;2.80;;;5.20;99.90;;;;;;5072863;28;20051;-90
2022/09/29 02:58:09;;;;;;;5.03;2.50;;;5.20;99.90;;;;;;5071816;28;20787;-88
2022/09/29 03:00:37;;;;;;;5.18;2.67;;;5.20;99.90;;;;;;5056932;28;20832;-89
2022/09/29 03:03:03;;;;;;;4.63;2.60;;;5.20;99.90;;;;;;5053122;28;20029;-90
2022/09/29 03:05:30;;;;;;;6.03;2.90;;;5.10;99.90;;;;;;5037234;28;20038;-89
2022/09/29 03:07:57;;;;;;;4.60;2.40;;;5.10;99.90;;;;;;5020109;28;20045;-89
2022/09/29 03:10:23;;;;;;;4.93;2.50;;;5.10;99.90;;;;;;5020881;28;20092;-89
2022/09/29 03:12:50;;;;;;;6.38;2.40;;;5.10;99.90;;;;;;5020661;28;20046;-89
2022/09/29 03:15:17;;;;;;;5.20;2.72;;;5.00;99.90;;;;;;5001278;28;20058;-90
2022/09/29 03:17:44;;;;;;;4.70;2.58;;;5.10;99.90;;;;;;5016502;28;20052;-90
2022/09/29 03:20:11;;;;;;;4.75;2.60;;;6.00;99.90;;;;;;5017031;28;20038;-89
2022/09/29 03:22:37;;;;;;;4.07;2.45;;;5.00;99.90;;;;;;5036501;28;20041;-89
2022/09/29 03:25:05;;;;;;;5.18;2.78;;;4.90;99.90;;;;;;5036261;28;20131;-89
2022/09/29 03:27:32;;;;;;;6.65;2.50;;;5.00;99.90;;;;;;5036261;28;20045;-89
2022/09/29 03:29:59;;;;;;;5.10;2.50;;;4.90;99.90;;;;;;5036312;28;20103;-89
2022/09/29 03:32:26;;;;;;;4.80;2.70;;;5.20;99.90;;;;;;5036550;28;20091;-89
2022/09/29 03:34:52;;;;;;;4.60;2.72;;;5.10;99.90;;;;;;5036125;28;20100;-89
2022/09/29 03:37:19;;;;;;;6.93;3.03;;;5.60;99.90;;;;;;5036970;28;20084;-90
2022/09/29 03:39:45;;;;;;;6.50;2.60;;;5.30;99.90;;;;;;5020121;28;20037;-89
2022/09/29 03:42:12;;;;;;;7.75;3.22;;;5.40;99.90;;;;;;5036760;28;20045;-89
2022/09/29 03:44:39;;;;;;;5.07;2.90;;;4.90;99.90;;;;;;5034426;28;20464;-89
2022/09/29 03:47:05;;;;;;;4.68;2.75;;;5.50;99.90;;;;;;5019252;28;20513;-89
2022/09/29 03:49:32;;;;;;;7.75;3.08;;;4.80;99.90;;;;;;5004956;28;20073;-89
2022/09/29 03:51:59;;;;;;;9.98;3.13;;;4.80;99.90;;;;;;5016525;28;20050;-89
2022/09/29 03:54:26;;;;;;;6.70;3.00;;;4.80;99.90;;;;;;5006109;28;20050;-89
2022/09/29 03:56:53;;;;;;;6.03;2.67;;;5.40;99.90;;;;;;5005942;28;20037;-90
2022/09/29 03:59:20;;;;;;;5.80;2.88;;;4.80;99.90;;;;;;5034974;28;20037;-89
2022/09/29 04:01:47;;;;;;;5.70;3.03;;;4.80;99.90;;;;;;5018589;28;20176;-89
2022/09/29 04:04:13;;;;;;;6.43;2.78;;;4.70;99.90;;;;;;5033208;28;20040;-88
2022/09/29 04:06:40;;;;;;;5.32;2.95;;;4.70;99.90;;;;;;5022912;28;20050;-88
2022/09/29 04:09:07;;;;;;;5.20;2.95;;;4.80;99.90;;;;;;5059947;28;20049;-89
2022/09/29 04:11:33;;;;;;;5.45;2.72;;;4.70;99.90;;;;;;5026663;28;20073;-89
2022/09/29 04:14:00;;;;;;;5.40;3.10;;;5.80;99.90;;;;;;5025546;28;20069;-89
2022/09/29 04:16:27;;;;;;;5.03;2.72;;;4.70;99.90;;;;;;5024518;28;20100;-89
2022/09/29 04:18:54;;;;;;;4.97;2.63;;;4.60;99.90;;;;;;5008442;28;20033;-89
2022/09/29 04:21:20;;;;;;;5.00;2.70;;;4.60;99.90;;;;;;5012194;28;20041;-89
2022/09/29 04:23:47;;;;;;;5.70;2.83;;;4.60;99.90;;;;;;5023962;28;20041;-89
2022/09/29 04:26:14;;;;;;;5.35;2.95;;;4.60;99.90;;;;;;5031616;28;20033;-89
2022/09/29 04:28:41;;;;;;;4.90;2.70;;;4.60;99.90;;;;;;5003648;28;20128;-88
2022/09/29 04:31:07;;;;;;;4.70;2.67;;;4.70;99.90;;;;;;5015359;28;20045;-89
2022/09/29 04:33:34;;;;;;;6.38;2.65;;;4.90;99.90;;;;;;5015900;28;20045;-89
2022/09/29 04:36:01;;;;;;;8.48;2.50;;;4.60;99.90;;;;;;5032191;28;20042;-89
2022/09/29 04:38:28;;;;;;;5.40;2.60;;;5.00;99.90;;;;;;5027516;28;20073;-89
2022/09/29 04:40:55;;;;;;;6.70;2.78;;;5.00;99.90;;;;;;5015605;28;20129;-89
2022/09/29 04:43:22;;;;;;;4.97;2.78;;;4.70;99.90;;;;;;5015811;28;20038;-90
2022/09/29 04:45:48;;;;;;;5.72;2.90;;;5.20;99.90;;;;;;5015961;28;20042;-88
2022/09/29 04:48:15;;;;;;;4.18;2.60;;;4.70;99.90;;;;;;5018076;28;20041;-89
2022/09/29 04:50:42;;;;;;;6.47;2.65;;;5.40;99.90;;;;;;5034920;28;20073;-89
2022/09/29 04:53:10;;;;;;;4.78;2.90;;;4.90;99.90;;;;;;5019151;28;20055;-89
2022/09/29 04:55:38;;;;;;;4.93;3.05;;;4.70;99.90;;;;;;5035626;28;20476;-89
2022/09/29 04:58:04;;;;;;;4.70;2.63;;;4.80;99.90;;;;;;5067524;28;20041;-89
2022/09/29 05:00:31;;;;;;;4.63;2.53;;;4.70;99.90;;;;;;5035365;28;20133;-89
2022/09/29 05:02:59;;;;;;;5.07;2.83;;;4.90;99.90;;;;;;5050964;28;20042;-89
2022/09/29 05:05:26;;;;;;;5.03;3.05;;;4.60;99.90;;;;;;5051149;28;20139;-89
2022/09/29 05:07:53;;;;;;;5.55;2.70;;;5.30;99.90;;;;;;5047162;28;20406;-89
2022/09/29 05:10:20;;;;;;;7.22;2.65;;;5.00;99.90;;;;;;5014387;28;20034;-90
2022/09/29 05:12:48;;;;;;;5.30;3.00;;;5.20;99.90;;;;;;5015966;28;20505;-89
2022/09/29 05:15:18;;;;;;;6.10;2.78;;;4.70;99.90;;;;;;5024869;28;20046;-89
2022/09/29 05:17:45;;;;;;;4.90;3.15;;;4.70;99.90;;;;;;5063973;28;20112;-89
2022/09/29 05:20:12;;;;;;;7.95;3.70;;;4.70;99.90;;;;;;5034721;28;20038;-88
2022/09/29 05:22:38;;;;;;;5.97;3.10;;;4.70;99.90;;;;;;5004775;28;20088;-89
2022/09/29 05:25:07;;;;;;;5.03;2.88;;;5.80;99.90;;;;;;5039823;28;20075;-89
2022/09/29 05:27:35;;;;;;;5.45;3.28;;;4.80;99.90;;;;;;5051083;28;20034;-89
2022/09/29 05:30:03;;;;;;;5.22;3.05;;;4.80;99.90;;;;;;5052244;28;20552;-89
2022/09/29 05:32:29;;;;;;;5.05;3.40;;;4.80;99.90;;;;;;5038303;28;20045;-90
2022/09/29 05:34:56;;;;;;;5.50;3.10;;;5.30;99.90;;;;;;5018388;28;20112;-89
2022/09/29 05:37:23;;;;;;;7.28;3.45;;;4.80;99.90;;;;;;5018566;28;20049;-89
2022/09/29 05:39:50;;;;;;;4.88;3.03;;;4.70;99.90;;;;;;5021583;28;20493;-89
2022/09/29 05:42:17;;;;;;;5.95;3.33;;;4.70;99.90;;;;;;5038087;28;20052;-89
2022/09/29 05:44:43;;;;;;;6.28;3.28;;;5.00;99.90;;;;;;5018141;28;20037;-88
2022/09/29 05:47:10;;;;;;;6.85;3.35;;;5.20;99.90;;;;;;5021957;28;20033;-89
2022/09/29 05:49:37;;;;;;;5.47;3.28;;;5.80;99.90;;;;;;5021919;28;20037;-90
2022/09/29 05:52:04;;;;;;;6.45;3.17;;;5.60;99.90;;;;;;5037536;28;20482;-90
2022/09/29 05:54:31;;;;;;;6.57;3.70;;;4.70;99.90;;;;;;5037968;28;20046;-89
2022/09/29 05:56:57;;;;;;;5.90;3.65;;;4.80;99.90;;;;;;5021487;28;20120;-89
2022/09/29 05:59:24;;;;;;;6.32;3.42;;;5.60;99.90;;;;;;5053975;28;20104;-88
2022/09/29 06:01:51;;;;;;;6.13;3.15;;;4.80;99.90;;;;;;5037696;28;20040;-89
2022/09/29 06:04:17;;;;;;;7.85;4.22;;;5.20;99.90;;;;;;5037730;28;20052;-89
2022/09/29 06:06:46;;;;;;;7.45;4.10;;;4.80;99.90;;;;;;5037517;28;20037;-89
2022/09/29 06:09:13;;;;;;;8.80;3.85;;;4.40;99.90;;;;;;5021527;28;20049;-89
2022/09/29 06:11:40;;;;;;;7.28;4.20;;;4.90;99.90;;;;;;5054253;28;20107;-89
2022/09/29 06:14:07;;;;;;;6.28;3.55;;;5.30;99.90;;;;;;5054160;28;20037;-89
2022/09/29 06:16:34;;;;;;;7.15;4.03;;;5.00;99.90;;;;;;5039671;28;20049;-89
2022/09/29 06:19:02;;;;;;;6.85;4.20;;;5.70;99.90;;;;;;5049279;28;20108;-89
2022/09/29 06:21:29;;;;;;;10.02;6.45;;;6.00;99.90;;;;;;5073560;28;20063;-88
2022/09/29 06:23:57;;;;;;;11.38;6.22;;;5.60;99.90;;;;;;5073414;28;20040;-88
2022/09/29 06:26:25;;;;;;;10.40;5.70;;;5.10;99.90;;;;;;5040884;28;20043;-88
2022/09/29 06:28:53;;;;;;;9.18;5.88;;;5.10;99.90;;;;;;5024575;28;20040;-87
2022/09/29 06:31:22;;;;;;;11.23;6.50;;;5.20;99.90;;;;;;5056645;28;20043;-91
2022/09/29 06:33:49;;;;;;;9.98;6.38;;;5.20;99.90;;;;;;5050929;28;20176;-92
2022/09/29 06:39:07;;;;;;;9.88;5.18;;;5.30;99.90;;;;;;5053990;28;20406;-91
2022/09/29 06:41:34;;;;;;;8.32;4.68;;;5.30;99.90;;;;;;5063013;28;20041;-91
2022/09/29 06:44:01;;;;;;;10.10;5.20;;;5.50;99.90;;;;;;5039529;28;20115;-91
2022/09/29 06:46:29;;;;;;;9.27;5.57;;;5.80;99.90;;;;;;5039891;28;20041;-92
2022/09/29 06:48:55;;;;;;;9.43;5.40;;;5.50;99.90;;;;;;5037938;28;20124;-90
2022/09/29 06:51:25;;;;;;;8.20;4.75;;;6.20;99.90;;;;;;5029446;28;20124;-91
2022/09/29 06:53:52;;;;;;;11.90;5.57;;;5.50;99.90;;;;;;5036603;28;20490;-91
2022/09/29 06:56:18;;;;;;;10.35;5.78;;;5.60;99.90;;;;;;5020760;28;20047;-92
2022/09/29 06:58:45;;;;;;;9.50;5.47;;;6.30;99.90;;;;;;5003961;28;20048;-91
2022/09/29 07:01:13;;;;;;;10.63;5.82;;;6.30;99.90;;;;;;5021943;28;20037;-91
2022/09/29 07:03:40;;;;;;;9.25;5.15;;;5.80;99.90;;;;;;5050223;28;20041;-91
2022/09/29 07:06:09;;;;;;;15.80;8.32;;;5.80;99.90;;;;;;5030701;28;20485;-93
2022/09/29 07:08:38;;;;;;;11.32;6.28;;;5.80;99.90;;;;;;5052772;28;20044;-91
2022/09/29 07:11:06;;;;;;;13.15;6.93;;;5.80;99.90;;;;;;5023884;28;20041;-90
2022/09/29 07:13:33;;;;;;;14.48;7.35;;;5.90;99.90;;;;;;5063898;28;20532;-91
2022/09/29 07:16:08;;;;;;;17.25;7.45;;;5.90;99.90;;;;;;5049993;28;20061;-92
2022/09/29 07:18:39;;;;;;;16.75;7.30;;;6.00;99.90;;;;;;5052089;28;20045;-92
2022/09/29 07:21:09;;;;;;;14.00;7.18;;;6.00;99.90;;;;;;5036587;28;20033;-92
2022/09/29 07:23:37;;;;;;;12.95;6.53;;;6.00;99.90;;;;;;5053559;28;20079;-91
2022/09/29 07:26:05;;;;;;;12.73;7.00;;;6.10;99.90;;;;;;5038635;28;20041;-91
2022/09/29 07:28:33;;;;;;;16.95;6.45;;;6.20;99.90;;;;;;5054932;28;20080;-92
2022/09/29 07:31:03;;;;;;;10.70;6.20;;;6.20;99.90;;;;;;5055277;28;20413;-90
2022/09/29 07:33:31;;;;;;;11.63;7.63;;;6.30;99.90;;;;;;5036439;28;20501;-92
2022/09/29 07:35:59;;;;;;;10.70;6.25;;;6.30;99.90;;;;;;5036906;28;20033;-93
2022/09/29 07:38:27;;;;;;;16.55;8.68;;;6.70;99.90;;;;;;5065069;28;20045;-92
2022/09/29 07:40:54;;;;;;;13.73;7.35;;;7.40;99.90;;;;;;5041384;28;20033;-92
2022/09/29 07:43:21;;;;;;;11.90;7.32;;;6.50;99.90;;;;;;5035438;28;20107;-91
2022/09/29 07:45:49;;;;;;;21.05;7.70;;;6.60;99.90;;;;;;5032961;28;20029;-93
2022/09/29 07:48:17;;;;;;;12.77;7.32;;;6.70;99.90;;;;;;5029596;28;20045;-92
2022/09/29 07:50:44;;;;;;;14.70;7.50;;;6.70;99.90;;;;;;5032471;28;20041;-91
2022/09/29 07:53:12;;;;;;;11.38;6.35;;;6.90;99.90;;;;;;5025290;28;20041;-91
2022/09/29 07:55:39;;;;;;;12.18;7.15;;;6.90;99.90;;;;;;5052014;28;20037;-90
2022/09/29 07:58:06;;;;;;;18.60;8.05;;;7.00;99.90;;;;;;5031625;28;20037;-93
2022/09/29 08:00:32;;;;;;;17.25;7.18;;;7.10;99.90;;;;;;5055313;28;20973;-91
2022/09/29 08:03:02;;;;;;;12.82;6.90;;;7.20;99.90;;;;;;5017178;28;20545;-92
2022/09/29 08:05:32;;;;;;;16.90;8.65;;;7.30;99.90;;;;;;5054601;28;20048;-92
2022/09/29 08:08:03;;;;;;;22.77;10.60;;;7.40;99.90;;;;;;5053968;28;20048;-92
2022/09/29 08:10:31;;;;;;;21.40;8.30;;;7.50;99.90;;;;;;5051704;28;20036;-92
2022/09/29 08:12:58;;;;;;;13.80;6.57;;;7.60;99.90;;;;;;5040838;28;20033;-92
2022/09/29 08:15:25;;;;;;;14.52;7.95;;;7.80;99.90;;;;;;5043073;28;20048;-91
2022/09/29 08:17:53;;;;;;;12.27;7.15;;;7.80;99.90;;;;;;5013840;28;20045;-91
2022/09/29 08:20:21;;;;;;;12.13;6.68;;;8.00;99.90;;;;;;5052757;28;20175;-90
2022/09/29 08:22:48;;;;;;;15.05;8.45;;;8.10;99.90;;;;;;5070081;28;20083;-90
2022/09/29 08:25:15;;;;;;;16.55;7.95;;;8.10;99.90;;;;;;5050916;28;20054;-89
2022/09/29 08:27:44;;;;;;;14.27;8.63;;;8.20;99.90;;;;;;5040664;28;20043;-90
2022/09/29 08:30:11;;;;;;;17.10;9.98;;;9.60;99.90;;;;;;5044639;28;20037;-89
2022/09/29 08:32:38;;;;;;;16.77;8.18;;;8.40;99.90;;;;;;5038588;28;20037;-89
2022/09/29 08:35:05;;;;;;;15.88;8.68;;;8.50;99.90;;;;;;5064402;28;20036;-90
2022/09/29 08:37:34;;;;;;;20.95;10.20;;;8.60;99.90;;;;;;5022002;28;20037;-90
2022/09/29 08:40:00;;;;;;;29.52;12.55;;;8.70;99.90;;;;;;5038714;28;20041;-91
2022/09/29 08:42:53;;;;;;;19.92;10.40;;;8.90;99.90;;;;;;5007298;28;20136;-89
2022/09/29 08:45:34;;;;;;;13.32;6.95;;;8.90;99.90;;;;;;5039003;28;20464;-90
2022/09/29 08:48:14;;;;;;;11.98;6.75;;;9.10;99.90;;;;;;5036171;28;20063;-88
2022/09/29 08:51:04;;;;;;;12.30;7.05;;;9.20;99.90;;;;;;5046821;28;20044;-89
2022/09/29 08:53:35;;;;;;;11.15;6.28;;;9.30;99.90;;;;;;5039405;28;20034;-88
2022/09/29 08:56:09;;;;;;;11.52;7.05;;;9.50;99.90;;;;;;5036468;28;20579;-89
2022/09/29 08:58:38;;;;;;;11.93;6.70;;;9.50;99.90;;;;;;5056173;28;20493;-88
2022/09/29 09:01:22;;;;;;;12.70;7.28;;;9.70;99.90;;;;;;5041152;28;20044;-88
2022/09/29 09:04:20;;;;;;;10.65;6.47;;;9.80;99.90;;;;;;5073296;28;20040;-86
2022/09/29 09:07:20;;;;;;;13.95;6.45;;;10.00;99.90;;;;;;5056736;28;20068;-87
2022/09/29 09:09:58;;;;;;;9.77;5.97;;;10.10;99.90;;;;;;5043442;28;20041;-87
2022/09/29 09:13:01;;;;;;;11.27;5.78;;;10.20;99.90;;;;;;5073756;28;20052;-87
2022/09/29 09:15:54;;;;;;;9.25;5.43;;;10.30;99.90;;;;;;5027806;28;20080;-86
2022/09/29 09:18:41;;;;;;;11.07;5.75;;;10.40;99.90;;;;;;5081468;28;20041;-88
2022/09/29 09:21:10;;;;;;;8.05;4.97;;;10.60;99.90;;;;;;5056700;28;20044;-88
2022/09/29 09:23:40;;;;;;;8.65;5.03;;;10.70;99.90;;;;;;5056428;28;20047;-87
2022/09/29 09:26:08;;;;;;;8.93;4.90;;;10.80;99.90;;;;;;5073380;28;20404;-88
2022/09/29 09:28:43;;;;;;;7.75;4.40;;;11.00;99.90;;;;;;5041396;28;20084;-88
2022/09/29 09:31:19;;;;;;;8.00;4.85;;;11.00;99.90;;;;;;5061820;28;20090;-88
2022/09/29 09:33:51;;;;;;;7.68;4.43;;;11.10;99.90;;;;;;5056522;28;20045;-86
2022/09/29 09:36:31;;;;;;;7.57;4.35;;;11.20;99.90;;;;;;5056553;28;20037;-89
2022/09/29 09:39:05;;;;;;;6.82;4.22;;;11.20;99.90;;;;;;5044324;28;20042;-88
2022/09/29 09:41:34;;;;;;;7.85;4.72;;;11.30;99.90;;;;;;5055239;28;20087;-88
2022/09/29 09:44:10;;;;;;;8.88;5.03;;;11.40;99.90;;;;;;5056817;28;20196;-88
2022/09/29 09:46:43;;;;;;;8.70;5.40;;;11.50;99.90;;;;;;5056022;28;20033;-88
2022/09/29 09:49:16;;;;;;;8.38;4.68;;;11.60;99.90;;;;;;5057071;28;20048;-88
2022/09/29 09:51:53;;;;;;;8.95;4.20;;;11.70;99.90;;;;;;5055419;28;20143;-88
2022/09/29 09:54:28;;;;;;;11.57;5.30;;;11.80;99.90;;;;;;5056926;28;20045;-88
2022/09/29 09:57:08;;;;;;;7.50;3.78;;;11.90;99.90;;;;;;5072807;28;20135;-87
2022/09/29 09:59:56;;;;;;;6.70;3.80;;;11.90;99.90;;;;;;5056171;28;20072;-87
2022/09/29 10:02:23;;;;;;;7.13;4.05;;;12.00;99.90;;;;;;5072863;28;20124;-88
2022/09/29 10:04:52;;;;;;;9.60;4.47;;;12.10;99.90;;;;;;5023412;28;20544;-88
2022/09/29 10:07:20;;;;;;;7.60;4.03;;;12.20;99.90;;;;;;5040159;28;20033;-88
2022/09/29 10:09:47;;;;;;;9.73;4.90;;;12.30;99.90;;;;;;5056097;28;20124;-88
2022/09/29 10:12:17;;;;;;;7.32;4.35;;;12.40;99.90;;;;;;5023717;28;20072;-88
2022/09/29 10:15:11;;;;;;;6.63;3.60;;;12.50;99.90;;;;;;5072155;28;20084;-87
2022/09/29 10:17:43;;;;;;;7.80;4.43;;;12.60;99.90;;;;;;5055947;28;20041;-87
2022/09/29 10:20:10;;;;;;;6.95;3.92;;;12.60;99.90;;;;;;5066006;28;20041;-89
2022/09/29 10:22:38;;;;;;;7.95;4.22;;;12.60;99.90;;;;;;5036080;28;20071;-80
2022/09/29 10:25:13;;;;;;;10.20;5.22;;;12.60;99.90;;;;;;5040264;28;20040;-86
2022/09/29 10:27:42;;;;;;;;;;;12.70;99.90;;;;;;5048419;28;20452;-86
2022/09/29 10:30:26;;;;;;;6.40;3.70;;;12.70;99.90;;;;;;5046798;28;19974;-87
2022/09/29 10:32:59;;;;;;;6.97;3.83;;;12.80;99.90;;;;;;5050754;28;20095;-86
2022/09/29 10:35:32;;;;;;;5.38;2.90;;;12.90;99.90;;;;;;5038151;28;20045;-86
2022/09/29 10:38:01;;;;;;;6.10;3.25;;;13.00;99.90;;;;;;5055069;28;20120;-87
2022/09/29 10:40:28;;;;;;;4.95;2.95;;;13.10;99.90;;;;;;5043732;28;20555;-86
2022/09/29 10:42:56;;;;;;;5.30;2.65;;;13.20;99.90;;;;;;5068707;28;20033;-86
2022/09/29 10:45:28;;;;;;;4.85;2.40;;;13.30;99.90;;;;;;5033371;28;20033;-86
2022/09/29 10:47:58;;;;;;;4.10;2.15;;;13.40;99.90;;;;;;5069494;28;20045;-85
2022/09/29 10:50:31;;;;;;;4.90;2.35;;;13.40;99.90;;;;;;5052916;28;20586;-86
2022/09/29 10:53:01;;;;;;;4.97;2.40;;;13.50;99.90;;;;;;5041112;28;20040;-86
2022/09/29 10:55:31;;;;;;;4.78;2.22;;;13.60;99.90;;;;;;5065323;28;20036;-86
2022/09/29 10:58:15;;;;;;;2.70;1.50;;;13.70;99.90;;;;;;5045830;28;20041;-86
2022/09/29 11:00:43;;;;;;;4.65;1.33;;;13.70;99.90;;;;;;5055617;28;20047;-85
2022/09/29 11:03:27;;;;;;;3.10;1.42;;;13.70;99.90;;;;;;5035028;28;20038;-86
2022/09/29 11:06:12;;;;;;;3.22;1.40;;;13.80;99.90;;;;;;5019084;28;20128;-85
2022/09/29 11:09:14;;;;;;;2.00;1.00;;;13.90;99.90;;;;;;5035684;28;20211;-85
2022/09/29 11:11:46;;;;;;;2.33;1.00;;;14.00;99.90;;;;;;4981181;29;20082;-85
2022/09/29 11:14:30;;;;;;;2.30;0.98;;;13.90;99.90;;;;;;5032425;28;20049;-85
2022/09/29 11:17:00;;;;;;;1.45;0.70;;;13.80;99.90;;;;;;5070104;28;20057;-86
2022/09/29 11:19:29;;;;;;;1.73;0.90;;;13.80;99.90;;;;;;5069028;28;20556;-86
2022/09/29 11:22:27;;;;;;;2.35;0.70;;;13.80;99.90;;;;;;5047768;28;20042;-86
2022/09/29 11:25:15;;;;;;;1.42;0.80;;;14.00;99.90;;;;;;5061670;28;20076;-87
2022/09/29 11:28:19;;;;;;;1.63;0.70;;;14.00;99.90;;;;;;5063966;28;20135;-86
2022/09/29 11:30:52;;;;;;;0.93;0.60;;;14.10;99.90;;;;;;5053471;28;20041;-86
2022/09/29 11:33:28;;;;;;;1.42;0.70;;;14.10;99.90;;;;;;5037744;28;20084;-86
2022/09/29 11:36:02;;;;;;;1.80;0.90;;;14.10;99.90;;;;;;5040063;28;20559;-86
2022/09/29 11:38:47;;;;;;;1.33;0.73;;;14.20;99.90;;;;;;5045253;28;20051;-86
2022/09/29 11:41:52;;;;;;;3.10;0.90;;;14.30;99.90;;;;;;5054783;28;20599;-87
2022/09/29 11:44:27;;;;;;;4.88;0.88;;;14.30;99.90;;;;;;5025138;28;20115;-86
2022/09/29 11:46:54;;;;;;;;;;;14.40;99.90;;;;;;5054553;28;20033;-86
2022/09/29 11:49:29;;;;;;;1.65;0.80;;;14.50;99.90;;;;;;5054975;28;19917;-86
2022/09/29 11:52:27;;;;;;;1.60;0.90;;;14.50;99.90;;;;;;5054356;28;20041;-86
2022/09/29 11:55:06;;;;;;;2.88;0.90;;;14.60;99.90;;;;;;5051058;28;20514;-86
2022/09/29 11:57:51;;;;;;;1.08;0.60;;;14.70;99.90;;;;;;5067416;28;20045;-86
2022/09/29 12:00:20;;;;;;;1.17;0.70;;;14.70;99.90;;;;;;5048601;28;20044;-86
2022/09/29 12:03:17;;;;;;;1.10;0.60;;;14.80;99.90;;;;;;5064947;28;20048;-86
2022/09/29 12:06:43;;;;;;;1.50;0.80;;;14.70;99.90;;;;;;5071028;28;20052;-87
2022/09/29 12:09:28;;;;;;;1.23;0.70;;;14.80;99.90;;;;;;5052167;28;20041;-87
2022/09/29 12:12:25;;;;;;;2.67;0.80;;;15.00;99.90;;;;;;5053916;28;20048;-85
2022/09/29 12:15:09;;;;;;;1.90;0.50;;;15.10;99.90;;;;;;5070446;28;20040;-87
2022/09/29 12:17:43;;;;;;;2.13;1.10;;;15.20;99.90;;;;;;5054016;28;20489;-86
2022/09/29 12:20:29;;;;;;;1.40;0.57;;;15.10;99.90;;;;;;5038090;28;20076;-86
2022/09/29 12:23:00;;;;;;;3.28;1.42;;;14.90;99.90;;;;;;5034329;28;20042;-85
2022/09/29 12:25:31;;;;;;;2.58;1.00;;;14.60;99.90;;;;;;5066162;28;20467;-86
2022/09/29 12:28:06;;;;;;;1.58;0.60;;;14.50;99.90;;;;;;5067196;28;20029;-85
2022/09/29 12:30:57;;;;;;;1.50;0.70;;;14.30;99.90;;;;;;5044890;28;20041;-86
2022/09/29 12:33:32;;;;;;;0.85;0.40;;;14.10;99.90;;;;;;5044906;28;20366;-87
2022/09/29 12:39:25;;;;;;;0.68;0.40;;;13.80;99.90;;;;;;5060058;28;20405;-86
2022/09/29 12:41:58;;;;;;;1.50;0.70;;;13.70;99.90;;;;;;5050633;28;20549;-85
2022/09/29 12:44:44;;;;;;;0.50;0.40;;;13.70;99.90;;;;;;5055203;28;20044;-87
2022/09/29 12:47:35;;;;;;;0.73;0.47;;;13.60;99.90;;;;;;5047758;28;20107;-85
2022/09/29 12:50:15;;;;;;;0.50;0.40;;;13.60;99.90;;;;;;5058855;28;20045;-85
2022/09/29 12:53:20;;;;;;;1.33;0.50;;;13.60;99.90;;;;;;5042883;28;20108;-87
2022/09/29 12:55:58;;;;;;;1.15;0.47;;;13.60;99.90;;;;;;5047651;28;20060;-85
2022/09/29 12:58:35;;;;;;;0.88;0.50;;;13.50;99.90;;;;;;5043543;28;20046;-86
2022/09/29 13:01:16;;;;;;;1.48;0.50;;;13.50;99.90;;;;;;5063175;28;20041;-85
2022/09/29 13:03:56;;;;;;;0.30;0.30;;;13.40;99.90;;;;;;5045013;28;20130;-85
2022/09/29 13:06:31;;;;;;;1.10;0.40;;;13.40;99.90;;;;;;5050529;28;20041;-86
2022/09/29 13:09:15;;;;;;;1.95;0.55;;;13.40;99.90;;;;;;5041807;28;20482;-87
2022/09/29 13:12:01;;;;;;;1.35;0.70;;;13.30;99.90;;;;;;5083039;28;20407;-86
2022/09/29 13:14:34;;;;;;;2.45;1.10;;;13.20;99.90;;;;;;5066757;28;20048;-87
2022/09/29 13:17:23;;;;;;;3.13;0.80;;;13.10;99.90;;;;;;5052736;28;20045;-83
2022/09/29 13:20:04;;;;;;;2.00;0.90;;;13.00;99.90;;;;;;5064079;28;20490;-87
2022/09/29 13:23:01;;;;;;;1.20;0.80;;;12.80;99.90;;;;;;5059058;28;20440;-86
2022/09/29 13:25:31;;;;;;;1.42;0.70;;;12.80;99.90;;;;;;5050099;28;20041;-87
2022/09/29 13:27:58;;;;;;;2.25;1.10;;;12.70;99.90;;;;;;5054027;28;20408;-86
2022/09/29 13:30:30;;;;;;;3.10;1.10;;;12.70;99.90;;;;;;5054597;28;20036;-88